Bigelow, Minnesota
Current Conditions -  °F | °C
As of 12:15 PM on Tuesday 21 Oct 2014 (Local Time) from KOTG Reporting Station
Clear Clear  
Wind Chill: 64°   Ceiling: Unl
Heat Index: 64°   Visibility: 10mi
Dew Point: 39°   Wind: 13mph
Humidity: 40%   Direction: 160°SSE
Pressure: 30.1"   Gusts: NA
Location:  43.51°N, 95.69°W
Report Text: KOTG 211715Z AUTO 16011KT 10SM CLR 18/04 A3010 RMK AO1
Loading
Personal Weather Stations






























Interactive Weather Map
Tropical Storm Tracking
New forecast layout! Learn more

10-Day Weather Forecast

Advertisements
Track Severe Weather on mobile